sensor_id;sensor_type;location;lat;lon;timestamp;P1;durP1;ratioP1;P2;durP2;ratioP2
52786;SDS011;38661;53.152;5.846;2022-11-15T00:01:47;28.38;;;20.92;;
52786;SDS011;38661;53.152;5.846;2022-11-15T00:04:13;30.05;;;22.38;;
52786;SDS011;38661;53.152;5.846;2022-11-15T00:06:38;31.38;;;21.45;;
52786;SDS011;38661;53.152;5.846;2022-11-15T00:09:04;29.50;;;23.10;;
52786;SDS011;38661;53.152;5.846;2022-11-15T00:11:30;30.25;;;20.35;;
52786;SDS011;38661;53.152;5.846;2022-11-15T00:13:56;25.10;;;19.08;;
52786;SDS011;38661;53.152;5.846;2022-11-15T00:16:23;25.65;;;19.05;;
52786;SDS011;38661;53.152;5.846;2022-11-15T00:18:49;27.30;;;20.85;;
52786;SDS011;38661;53.152;5.846;2022-11-15T00:21:16;25.70;;;19.65;;
52786;SDS011;38661;53.152;5.846;2022-11-15T00:23:42;27.50;;;20.42;;
52786;SDS011;38661;53.152;5.846;2022-11-15T00:26:10;29.13;;;21.52;;
52786;SDS011;38661;53.152;5.846;2022-11-15T00:28:37;29.40;;;19.80;;
52786;SDS011;38661;53.152;5.846;2022-11-15T00:31:04;27.38;;;20.67;;
52786;SDS011;38661;53.152;5.846;2022-11-15T00:33:31;28.45;;;20.55;;
52786;SDS011;38661;53.152;5.846;2022-11-15T00:36:05;31.80;;;21.75;;
52786;SDS011;38661;53.152;5.846;2022-11-15T00:38:34;27.83;;;20.83;;
52786;SDS011;38661;53.152;5.846;2022-11-15T00:41:01;27.77;;;19.38;;
52786;SDS011;38661;53.152;5.846;2022-11-15T00:43:28;27.83;;;20.30;;
52786;SDS011;38661;53.152;5.846;2022-11-15T00:45:54;27.33;;;20.30;;
52786;SDS011;38661;53.152;5.846;2022-11-15T00:48:19;24.60;;;19.83;;
52786;SDS011;38661;53.152;5.846;2022-11-15T00:50:45;24.73;;;19.92;;
52786;SDS011;38661;53.152;5.846;2022-11-15T00:53:11;25.95;;;21.17;;
52786;SDS011;38661;53.152;5.846;2022-11-15T00:55:37;30.35;;;20.48;;
52786;SDS011;38661;53.152;5.846;2022-11-15T00:58:02;26.50;;;20.33;;
52786;SDS011;38661;53.152;5.846;2022-11-15T01:00:28;29.67;;;22.30;;
52786;SDS011;38661;53.152;5.846;2022-11-15T01:02:54;29.38;;;20.58;;
52786;SDS011;38661;53.152;5.846;2022-11-15T01:05:19;28.27;;;20.20;;
52786;SDS011;38661;53.152;5.846;2022-11-15T01:07:45;26.25;;;20.02;;
52786;SDS011;38661;53.152;5.846;2022-11-15T01:10:11;30.60;;;21.08;;
52786;SDS011;38661;53.152;5.846;2022-11-15T01:12:36;31.25;;;20.17;;
52786;SDS011;38661;53.152;5.846;2022-11-15T01:15:02;29.80;;;21.90;;
52786;SDS011;38661;53.152;5.846;2022-11-15T01:17:29;31.40;;;21.95;;
52786;SDS011;38661;53.152;5.846;2022-11-15T01:19:55;32.85;;;23.25;;
52786;SDS011;38661;53.152;5.846;2022-11-15T01:22:21;32.47;;;22.85;;
52786;SDS011;38661;53.152;5.846;2022-11-15T01:24:47;32.60;;;24.02;;
52786;SDS011;38661;53.152;5.846;2022-11-15T01:27:14;32.50;;;23.30;;
52786;SDS011;38661;53.152;5.846;2022-11-15T01:29:39;31.15;;;23.83;;
52786;SDS011;38661;53.152;5.846;2022-11-15T01:32:05;33.55;;;24.30;;
52786;SDS011;38661;53.152;5.846;2022-11-15T01:34:31;33.78;;;25.30;;
52786;SDS011;38661;53.152;5.846;2022-11-15T01:36:57;34.67;;;25.08;;
52786;SDS011;38661;53.152;5.846;2022-11-15T01:39:23;38.63;;;26.52;;
52786;SDS011;38661;53.152;5.846;2022-11-15T01:41:49;35.70;;;25.23;;
52786;SDS011;38661;53.152;5.846;2022-11-15T01:46:57;39.60;;;25.63;;
52786;SDS011;38661;53.152;5.846;2022-11-15T01:49:24;33.97;;;25.85;;
52786;SDS011;38661;53.152;5.846;2022-11-15T01:51:52;34.20;;;25.10;;
52786;SDS011;38661;53.152;5.846;2022-11-15T01:54:19;34.38;;;25.50;;
52786;SDS011;38661;53.152;5.846;2022-11-15T01:56:48;38.25;;;25.58;;
52786;SDS011;38661;53.152;5.846;2022-11-15T01:59:18;34.40;;;25.35;;
52786;SDS011;38661;53.152;5.846;2022-11-15T02:01:44;36.60;;;24.70;;
52786;SDS011;38661;53.152;5.846;2022-11-15T02:04:15;33.55;;;23.50;;
52786;SDS011;38661;53.152;5.846;2022-11-15T02:06:44;37.58;;;25.80;;
52786;SDS011;38661;53.152;5.846;2022-11-15T02:09:13;37.53;;;23.88;;
52786;SDS011;38661;53.152;5.846;2022-11-15T02:11:39;32.53;;;22.27;;
52786;SDS011;38661;53.152;5.846;2022-11-15T02:14:05;38.38;;;24.75;;
52786;SDS011;38661;53.152;5.846;2022-11-15T02:24:48;40.10;;;24.45;;
52786;SDS011;38661;53.152;5.846;2022-11-15T02:33:07;41.60;;;26.42;;
52786;SDS011;38661;53.152;5.846;2022-11-15T02:36:00;38.53;;;23.95;;
52786;SDS011;38661;53.152;5.846;2022-11-15T02:38:44;37.22;;;23.60;;
52786;SDS011;38661;53.152;5.846;2022-11-15T02:41:17;40.08;;;26.13;;
52786;SDS011;38661;53.152;5.846;2022-11-15T02:44:09;40.42;;;26.92;;
52786;SDS011;38661;53.152;5.846;2022-11-15T02:47:09;39.80;;;24.15;;
52786;SDS011;38661;53.152;5.846;2022-11-15T02:49:48;40.22;;;26.67;;
52786;SDS011;38661;53.152;5.846;2022-11-15T02:52:16;40.75;;;26.40;;
52786;SDS011;38661;53.152;5.846;2022-11-15T02:54:52;45.28;;;27.50;;
52786;SDS011;38661;53.152;5.846;2022-11-15T03:00:08;50.67;;;28.25;;
52786;SDS011;38661;53.152;5.846;2022-11-15T03:02:47;53.00;;;29.17;;
52786;SDS011;38661;53.152;5.846;2022-11-15T03:05:44;52.10;;;29.38;;
52786;SDS011;38661;53.152;5.846;2022-11-15T03:11:08;52.38;;;29.08;;
52786;SDS011;38661;53.152;5.846;2022-11-15T03:16:28;54.47;;;29.85;;
52786;SDS011;38661;53.152;5.846;2022-11-15T03:19:19;59.05;;;29.65;;
52786;SDS011;38661;53.152;5.846;2022-11-15T03:21:50;61.88;;;31.20;;
52786;SDS011;38661;53.152;5.846;2022-11-15T03:24:20;54.35;;;29.55;;
52786;SDS011;38661;53.152;5.846;2022-11-15T03:26:49;57.28;;;27.45;;
52786;SDS011;38661;53.152;5.846;2022-11-15T03:29:17;62.88;;;31.63;;
52786;SDS011;38661;53.152;5.846;2022-11-15T03:31:50;62.05;;;31.85;;
52786;SDS011;38661;53.152;5.846;2022-11-15T03:34:23;70.95;;;32.72;;
52786;SDS011;38661;53.152;5.846;2022-11-15T03:36:59;54.53;;;29.27;;
52786;SDS011;38661;53.152;5.846;2022-11-15T03:39:26;72.95;;;33.60;;
52786;SDS011;38661;53.152;5.846;2022-11-15T03:42:01;82.90;;;32.97;;
52786;SDS011;38661;53.152;5.846;2022-11-15T03:44:32;65.35;;;30.88;;
52786;SDS011;38661;53.152;5.846;2022-11-15T03:47:10;73.55;;;34.95;;
52786;SDS011;38661;53.152;5.846;2022-11-15T03:49:38;61.55;;;30.80;;
52786;SDS011;38661;53.152;5.846;2022-11-15T03:52:09;71.63;;;32.25;;
52786;SDS011;38661;53.152;5.846;2022-11-15T03:54:35;70.15;;;32.65;;
52786;SDS011;38661;53.152;5.846;2022-11-15T03:57:01;74.25;;;34.25;;
52786;SDS011;38661;53.152;5.846;2022-11-15T03:59:27;73.82;;;30.77;;
52786;SDS011;38661;53.152;5.846;2022-11-15T04:01:52;83.38;;;33.58;;
52786;SDS011;38661;53.152;5.846;2022-11-15T04:04:18;65.85;;;30.20;;
52786;SDS011;38661;53.152;5.846;2022-11-15T04:06:44;78.65;;;33.75;;
52786;SDS011;38661;53.152;5.846;2022-11-15T04:09:10;86.88;;;35.40;;
52786;SDS011;38661;53.152;5.846;2022-11-15T04:11:35;76.43;;;33.58;;
52786;SDS011;38661;53.152;5.846;2022-11-15T04:14:01;66.13;;;31.85;;
52786;SDS011;38661;53.152;5.846;2022-11-15T04:16:27;71.70;;;32.05;;
52786;SDS011;38661;53.152;5.846;2022-11-15T04:18:52;66.40;;;31.63;;
52786;SDS011;38661;53.152;5.846;2022-11-15T04:21:37;66.63;;;32.60;;
52786;SDS011;38661;53.152;5.846;2022-11-15T04:24:21;66.45;;;30.27;;
52786;SDS011;38661;53.152;5.846;2022-11-15T04:26:47;57.63;;;27.85;;
52786;SDS011;38661;53.152;5.846;2022-11-15T04:29:13;64.05;;;31.80;;
52786;SDS011;38661;53.152;5.846;2022-11-15T04:31:57;63.70;;;30.33;;
52786;SDS011;38661;53.152;5.846;2022-11-15T04:34:22;64.03;;;28.00;;
52786;SDS011;38661;53.152;5.846;2022-11-15T04:36:48;58.25;;;29.02;;
52786;SDS011;38661;53.152;5.846;2022-11-15T04:39:32;61.78;;;31.10;;
52786;SDS011;38661;53.152;5.846;2022-11-15T04:41:58;61.00;;;28.15;;
52786;SDS011;38661;53.152;5.846;2022-11-15T04:44:24;62.58;;;28.92;;
52786;SDS011;38661;53.152;5.846;2022-11-15T04:46:49;65.10;;;32.38;;
52786;SDS011;38661;53.152;5.846;2022-11-15T04:49:15;47.25;;;24.67;;
52786;SDS011;38661;53.152;5.846;2022-11-15T04:51:40;56.85;;;28.13;;
52786;SDS011;38661;53.152;5.846;2022-11-15T04:54:06;63.38;;;30.63;;
52786;SDS011;38661;53.152;5.846;2022-11-15T04:56:32;65.40;;;30.30;;
52786;SDS011;38661;53.152;5.846;2022-11-15T04:58:57;76.53;;;32.13;;
52786;SDS011;38661;53.152;5.846;2022-11-15T05:01:23;69.32;;;32.53;;
52786;SDS011;38661;53.152;5.846;2022-11-15T05:03:49;71.75;;;30.70;;
52786;SDS011;38661;53.152;5.846;2022-11-15T05:06:33;80.13;;;33.15;;
52786;SDS011;38661;53.152;5.846;2022-11-15T05:08:59;81.82;;;35.55;;
52786;SDS011;38661;53.152;5.846;2022-11-15T05:11:24;86.38;;;34.95;;
52786;SDS011;38661;53.152;5.846;2022-11-15T05:13:52;92.65;;;34.92;;
52786;SDS011;38661;53.152;5.846;2022-11-15T05:16:18;98.30;;;38.20;;
52786;SDS011;38661;53.152;5.846;2022-11-15T05:18:44;87.55;;;34.72;;
52786;SDS011;38661;53.152;5.846;2022-11-15T05:21:11;94.03;;;37.08;;
52786;SDS011;38661;53.152;5.846;2022-11-15T05:23:39;97.70;;;37.75;;
52786;SDS011;38661;53.152;5.846;2022-11-15T05:26:05;103.35;;;40.20;;
52786;SDS011;38661;53.152;5.846;2022-11-15T05:28:32;94.85;;;38.58;;
52786;SDS011;38661;53.152;5.846;2022-11-15T05:31:06;96.47;;;38.33;;
52786;SDS011;38661;53.152;5.846;2022-11-15T05:33:33;104.28;;;40.38;;
52786;SDS011;38661;53.152;5.846;2022-11-15T05:36:04;103.97;;;41.13;;
52786;SDS011;38661;53.152;5.846;2022-11-15T05:38:49;114.13;;;43.75;;
52786;SDS011;38661;53.152;5.846;2022-11-15T05:41:16;93.97;;;41.67;;
52786;SDS011;38661;53.152;5.846;2022-11-15T05:43:43;129.45;;;52.08;;
52786;SDS011;38661;53.152;5.846;2022-11-15T05:46:11;79.47;;;37.78;;
52786;SDS011;38661;53.152;5.846;2022-11-15T05:48:38;102.93;;;47.70;;
52786;SDS011;38661;53.152;5.846;2022-11-15T05:51:07;114.82;;;43.42;;
52786;SDS011;38661;53.152;5.846;2022-11-15T05:53:33;124.57;;;48.88;;
52786;SDS011;38661;53.152;5.846;2022-11-15T05:56:00;96.65;;;42.00;;
52786;SDS011;38661;53.152;5.846;2022-11-15T05:58:27;137.02;;;51.42;;
52786;SDS011;38661;53.152;5.846;2022-11-15T06:00:53;129.65;;;50.65;;
52786;SDS011;38661;53.152;5.846;2022-11-15T06:03:19;110.22;;;43.33;;
52786;SDS011;38661;53.152;5.846;2022-11-15T06:05:45;88.75;;;39.35;;
52786;SDS011;38661;53.152;5.846;2022-11-15T06:08:11;94.78;;;43.63;;
52786;SDS011;38661;53.152;5.846;2022-11-15T06:10:36;78.03;;;39.10;;
52786;SDS011;38661;53.152;5.846;2022-11-15T06:13:03;100.18;;;45.63;;
52786;SDS011;38661;53.152;5.846;2022-11-15T06:15:29;124.78;;;48.75;;
52786;SDS011;38661;53.152;5.846;2022-11-15T06:17:56;94.15;;;41.92;;
52786;SDS011;38661;53.152;5.846;2022-11-15T06:20:23;104.65;;;44.05;;
52786;SDS011;38661;53.152;5.846;2022-11-15T06:23:02;99.90;;;41.88;;
52786;SDS011;38661;53.152;5.846;2022-11-15T06:25:29;104.32;;;44.67;;
52786;SDS011;38661;53.152;5.846;2022-11-15T06:27:56;92.47;;;42.40;;
52786;SDS011;38661;53.152;5.846;2022-11-15T06:30:23;92.07;;;41.40;;
52786;SDS011;38661;53.152;5.846;2022-11-15T06:32:50;91.90;;;41.45;;
52786;SDS011;38661;53.152;5.846;2022-11-15T06:35:16;90.15;;;40.47;;
52786;SDS011;38661;53.152;5.846;2022-11-15T06:37:42;96.82;;;42.47;;
52786;SDS011;38661;53.152;5.846;2022-11-15T06:40:08;100.63;;;42.63;;
52786;SDS011;38661;53.152;5.846;2022-11-15T06:42:34;103.07;;;41.15;;
52786;SDS011;38661;53.152;5.846;2022-11-15T06:45:00;105.80;;;44.88;;
52786;SDS011;38661;53.152;5.846;2022-11-15T06:47:26;105.60;;;45.28;;
52786;SDS011;38661;53.152;5.846;2022-11-15T06:49:52;99.85;;;44.05;;
52786;SDS011;38661;53.152;5.846;2022-11-15T06:52:18;111.45;;;46.80;;
52786;SDS011;38661;53.152;5.846;2022-11-15T06:54:44;122.20;;;49.58;;
52786;SDS011;38661;53.152;5.846;2022-11-15T06:57:10;114.35;;;48.25;;
52786;SDS011;38661;53.152;5.846;2022-11-15T06:59:36;122.10;;;49.20;;
52786;SDS011;38661;53.152;5.846;2022-11-15T07:02:02;122.55;;;51.25;;
52786;SDS011;38661;53.152;5.846;2022-11-15T07:04:28;119.78;;;51.50;;
52786;SDS011;38661;53.152;5.846;2022-11-15T07:06:54;119.90;;;48.92;;
52786;SDS011;38661;53.152;5.846;2022-11-15T07:09:20;126.10;;;52.78;;
52786;SDS011;38661;53.152;5.846;2022-11-15T07:11:46;118.28;;;49.28;;
52786;SDS011;38661;53.152;5.846;2022-11-15T07:14:11;109.20;;;48.13;;
52786;SDS011;38661;53.152;5.846;2022-11-15T07:16:37;98.18;;;43.80;;
52786;SDS011;38661;53.152;5.846;2022-11-15T07:19:03;111.68;;;47.65;;
52786;SDS011;38661;53.152;5.846;2022-11-15T07:21:29;103.82;;;48.63;;
52786;SDS011;38661;53.152;5.846;2022-11-15T07:23:55;106.38;;;48.90;;
52786;SDS011;38661;53.152;5.846;2022-11-15T07:26:20;106.88;;;49.00;;
52786;SDS011;38661;53.152;5.846;2022-11-15T07:28:46;109.38;;;47.00;;
52786;SDS011;38661;53.152;5.846;2022-11-15T07:31:12;106.75;;;45.17;;
52786;SDS011;38661;53.152;5.846;2022-11-15T07:33:37;98.90;;;48.63;;
52786;SDS011;38661;53.152;5.846;2022-11-15T07:36:04;101.68;;;47.22;;
52786;SDS011;38661;53.152;5.846;2022-11-15T07:38:32;99.72;;;47.97;;
52786;SDS011;38661;53.152;5.846;2022-11-15T07:40:59;92.05;;;44.03;;
52786;SDS011;38661;53.152;5.846;2022-11-15T07:43:27;98.03;;;45.75;;
52786;SDS011;38661;53.152;5.846;2022-11-15T07:45:54;89.00;;;46.42;;
52786;SDS011;38661;53.152;5.846;2022-11-15T07:48:20;92.57;;;48.35;;
52786;SDS011;38661;53.152;5.846;2022-11-15T07:50:46;89.13;;;45.67;;
52786;SDS011;38661;53.152;5.846;2022-11-15T07:53:12;83.40;;;44.47;;
52786;SDS011;38661;53.152;5.846;2022-11-15T07:55:39;77.25;;;42.63;;
52786;SDS011;38661;53.152;5.846;2022-11-15T07:58:07;80.93;;;42.65;;
52786;SDS011;38661;53.152;5.846;2022-11-15T08:00:36;74.75;;;40.63;;
52786;SDS011;38661;53.152;5.846;2022-11-15T08:03:06;79.75;;;41.38;;
52786;SDS011;38661;53.152;5.846;2022-11-15T08:05:42;69.50;;;39.47;;
52786;SDS011;38661;53.152;5.846;2022-11-15T08:08:08;69.90;;;40.25;;
52786;SDS011;38661;53.152;5.846;2022-11-15T08:10:35;67.85;;;38.33;;
52786;SDS011;38661;53.152;5.846;2022-11-15T08:13:03;73.13;;;40.47;;
52786;SDS011;38661;53.152;5.846;2022-11-15T08:15:30;75.05;;;41.88;;
52786;SDS011;38661;53.152;5.846;2022-11-15T08:17:57;66.03;;;38.47;;
52786;SDS011;38661;53.152;5.846;2022-11-15T08:20:26;66.32;;;36.60;;
52786;SDS011;38661;53.152;5.846;2022-11-15T08:22:56;64.68;;;38.60;;
52786;SDS011;38661;53.152;5.846;2022-11-15T08:25:23;62.00;;;37.40;;
52786;SDS011;38661;53.152;5.846;2022-11-15T08:27:58;67.07;;;36.85;;
52786;SDS011;38661;53.152;5.846;2022-11-15T08:30:25;63.55;;;37.83;;
52786;SDS011;38661;53.152;5.846;2022-11-15T08:32:52;56.88;;;34.83;;
52786;SDS011;38661;53.152;5.846;2022-11-15T08:35:19;56.03;;;34.22;;
52786;SDS011;38661;53.152;5.846;2022-11-15T08:37:45;66.10;;;36.17;;
52786;SDS011;38661;53.152;5.846;2022-11-15T08:40:11;65.03;;;36.47;;
52786;SDS011;38661;53.152;5.846;2022-11-15T08:42:38;62.35;;;37.03;;
52786;SDS011;38661;53.152;5.846;2022-11-15T08:45:04;56.40;;;34.13;;
52786;SDS011;38661;53.152;5.846;2022-11-15T08:47:30;55.50;;;33.38;;
52786;SDS011;38661;53.152;5.846;2022-11-15T08:49:56;55.20;;;35.20;;
52786;SDS011;38661;53.152;5.846;2022-11-15T08:52:21;55.30;;;34.58;;
52786;SDS011;38661;53.152;5.846;2022-11-15T08:54:47;55.25;;;34.10;;
52786;SDS011;38661;53.152;5.846;2022-11-15T08:57:13;51.88;;;33.33;;
52786;SDS011;38661;53.152;5.846;2022-11-15T08:59:38;54.47;;;32.70;;
52786;SDS011;38661;53.152;5.846;2022-11-15T09:02:04;53.33;;;33.63;;
52786;SDS011;38661;53.152;5.846;2022-11-15T09:04:31;57.38;;;33.38;;
52786;SDS011;38661;53.152;5.846;2022-11-15T09:06:57;54.00;;;32.92;;
52786;SDS011;38661;53.152;5.846;2022-11-15T09:09:22;51.90;;;31.95;;
52786;SDS011;38661;53.152;5.846;2022-11-15T09:11:48;50.72;;;31.00;;
52786;SDS011;38661;53.152;5.846;2022-11-15T09:14:15;48.20;;;31.35;;
52786;SDS011;38661;53.152;5.846;2022-11-15T09:16:41;48.25;;;31.65;;
52786;SDS011;38661;53.152;5.846;2022-11-15T09:19:07;47.63;;;29.98;;
52786;SDS011;38661;53.152;5.846;2022-11-15T09:21:33;42.45;;;29.70;;
52786;SDS011;38661;53.152;5.846;2022-11-15T09:23:58;42.40;;;29.58;;
52786;SDS011;38661;53.152;5.846;2022-11-15T09:26:24;47.72;;;27.52;;
52786;SDS011;38661;53.152;5.846;2022-11-15T09:28:50;44.67;;;29.08;;
52786;SDS011;38661;53.152;5.846;2022-11-15T09:31:16;43.55;;;30.02;;
52786;SDS011;38661;53.152;5.846;2022-11-15T09:33:44;42.53;;;27.88;;
52786;SDS011;38661;53.152;5.846;2022-11-15T09:36:11;41.75;;;27.70;;
52786;SDS011;38661;53.152;5.846;2022-11-15T09:38:37;44.00;;;29.27;;
52786;SDS011;38661;53.152;5.846;2022-11-15T09:44:04;43.25;;;29.50;;
52786;SDS011;38661;53.152;5.846;2022-11-15T09:49:00;40.33;;;28.27;;
52786;SDS011;38661;53.152;5.846;2022-11-15T09:51:32;39.13;;;28.92;;
52786;SDS011;38661;53.152;5.846;2022-11-15T09:54:04;49.42;;;31.20;;
52786;SDS011;38661;53.152;5.846;2022-11-15T09:56:37;38.70;;;27.08;;
52786;SDS011;38661;53.152;5.846;2022-11-15T09:59:11;45.72;;;30.02;;
52786;SDS011;38661;53.152;5.846;2022-11-15T10:04:22;42.30;;;29.10;;
52786;SDS011;38661;53.152;5.846;2022-11-15T10:07:37;42.15;;;29.15;;
52786;SDS011;38661;53.152;5.846;2022-11-15T10:12:12;45.63;;;29.00;;
52786;SDS011;38661;53.152;5.846;2022-11-15T10:14:39;36.28;;;26.45;;
52786;SDS011;38661;53.152;5.846;2022-11-15T10:17:21;37.72;;;27.13;;
52786;SDS011;38661;53.152;5.846;2022-11-15T10:19:56;42.08;;;27.45;;
52786;SDS011;38661;53.152;5.846;2022-11-15T10:25:17;38.28;;;26.25;;
52786;SDS011;38661;53.152;5.846;2022-11-15T10:27:44;37.28;;;25.38;;
52786;SDS011;38661;53.152;5.846;2022-11-15T10:30:20;35.72;;;27.33;;
52786;SDS011;38661;53.152;5.846;2022-11-15T10:32:47;37.33;;;25.80;;
52786;SDS011;38661;53.152;5.846;2022-11-15T10:35:25;32.70;;;24.75;;
52786;SDS011;38661;53.152;5.846;2022-11-15T10:38:01;32.88;;;24.80;;
52786;SDS011;38661;53.152;5.846;2022-11-15T10:40:31;36.38;;;27.25;;
52786;SDS011;38661;53.152;5.846;2022-11-15T10:45:35;32.85;;;24.38;;
52786;SDS011;38661;53.152;5.846;2022-11-15T10:48:22;39.60;;;25.23;;
52786;SDS011;38661;53.152;5.846;2022-11-15T10:50:48;35.92;;;24.67;;
52786;SDS011;38661;53.152;5.846;2022-11-15T10:55:51;31.55;;;22.05;;
52786;SDS011;38661;53.152;5.846;2022-11-15T10:58:29;31.30;;;23.58;;
52786;SDS011;38661;53.152;5.846;2022-11-15T11:01:08;29.60;;;21.55;;
52786;SDS011;38661;53.152;5.846;2022-11-15T11:03:45;33.40;;;21.58;;
52786;SDS011;38661;53.152;5.846;2022-11-15T11:06:24;28.15;;;21.65;;
52786;SDS011;38661;53.152;5.846;2022-11-15T11:08:58;29.77;;;20.27;;
52786;SDS011;38661;53.152;5.846;2022-11-15T11:11:44;26.92;;;20.45;;
52786;SDS011;38661;53.152;5.846;2022-11-15T11:14:56;30.45;;;21.30;;
52786;SDS011;38661;53.152;5.846;2022-11-15T11:19:56;25.85;;;19.75;;
52786;SDS011;38661;53.152;5.846;2022-11-15T11:22:53;25.98;;;18.67;;
52786;SDS011;38661;53.152;5.846;2022-11-15T11:31:00;20.65;;;17.02;;
52786;SDS011;38661;53.152;5.846;2022-11-15T11:34:29;21.75;;;14.55;;
52786;SDS011;38661;53.152;5.846;2022-11-15T11:36:50;23.63;;;15.32;;
52786;SDS011;38661;53.152;5.846;2022-11-15T11:42:28;19.90;;;14.63;;
52786;SDS011;38661;53.152;5.846;2022-11-15T11:45:40;19.83;;;15.27;;
52786;SDS011;38661;53.152;5.846;2022-11-15T11:48:36;19.88;;;13.60;;
52786;SDS011;38661;53.152;5.846;2022-11-15T11:51:13;20.38;;;14.27;;
52786;SDS011;38661;53.152;5.846;2022-11-15T11:56:29;20.92;;;15.13;;
52786;SDS011;38661;53.152;5.846;2022-11-15T11:59:32;19.50;;;14.30;;
52786;SDS011;38661;53.152;5.846;2022-11-15T12:01:57;19.83;;;13.07;;
52786;SDS011;38661;53.152;5.846;2022-11-15T12:04:29;17.63;;;11.73;;
52786;SDS011;38661;53.152;5.846;2022-11-15T12:07:17;16.38;;;12.60;;
52786;SDS011;38661;53.152;5.846;2022-11-15T12:09:58;17.13;;;11.48;;
52786;SDS011;38661;53.152;5.846;2022-11-15T12:17:33;18.05;;;12.65;;
52786;SDS011;38661;53.152;5.846;2022-11-15T12:20:00;19.48;;;12.20;;
52786;SDS011;38661;53.152;5.846;2022-11-15T12:22:42;14.23;;;11.88;;
52786;SDS011;38661;53.152;5.846;2022-11-15T12:25:17;16.10;;;11.98;;
52786;SDS011;38661;53.152;5.846;2022-11-15T12:27:57;17.83;;;11.43;;
52786;SDS011;38661;53.152;5.846;2022-11-15T12:30:41;20.00;;;10.75;;
52786;SDS011;38661;53.152;5.846;2022-11-15T12:33:31;13.20;;;10.32;;
52786;SDS011;38661;53.152;5.846;2022-11-15T12:36:05;14.05;;;9.73;;
52786;SDS011;38661;53.152;5.846;2022-11-15T12:41:39;11.45;;;8.10;;
52786;SDS011;38661;53.152;5.846;2022-11-15T13:02:27;6.35;;;3.88;;
52786;SDS011;38661;53.152;5.846;2022-11-15T13:17:38;8.45;;;4.93;;
52786;SDS011;38661;53.152;5.846;2022-11-15T13:28:02;4.70;;;3.95;;
52786;SDS011;38661;53.152;5.846;2022-11-15T13:38:40;8.55;;;6.78;;
52786;SDS011;38661;53.152;5.846;2022-11-15T13:41:13;6.82;;;4.65;;
52786;SDS011;38661;53.152;5.846;2022-11-15T13:43:47;10.85;;;4.93;;
52786;SDS011;38661;53.152;5.846;2022-11-15T13:46:24;7.10;;;4.50;;
52786;SDS011;38661;53.152;5.846;2022-11-15T13:49:04;9.25;;;5.13;;
52786;SDS011;38661;53.152;5.846;2022-11-15T13:51:37;5.05;;;3.90;;
52786;SDS011;38661;53.152;5.846;2022-11-15T13:54:33;7.75;;;5.47;;
52786;SDS011;38661;53.152;5.846;2022-11-15T13:57:14;5.43;;;4.43;;
52786;SDS011;38661;53.152;5.846;2022-11-15T13:59:57;5.43;;;4.47;;
52786;SDS011;38661;53.152;5.846;2022-11-15T14:02:31;6.63;;;3.80;;
52786;SDS011;38661;53.152;5.846;2022-11-15T14:07:54;4.68;;;4.10;;
52786;SDS011;38661;53.152;5.846;2022-11-15T14:12:55;5.20;;;4.05;;
52786;SDS011;38661;53.152;5.846;2022-11-15T14:17:54;7.43;;;4.03;;
52786;SDS011;38661;53.152;5.846;2022-11-15T14:22:57;7.78;;;3.63;;
52786;SDS011;38661;53.152;5.846;2022-11-15T14:25:34;6.82;;;3.95;;
52786;SDS011;38661;53.152;5.846;2022-11-15T14:30:48;6.30;;;4.40;;
52786;SDS011;38661;53.152;5.846;2022-11-15T14:33:20;4.88;;;3.85;;
52786;SDS011;38661;53.152;5.846;2022-11-15T14:35:48;6.55;;;3.67;;
52786;SDS011;38661;53.152;5.846;2022-11-15T14:38:15;4.80;;;3.58;;
52786;SDS011;38661;53.152;5.846;2022-11-15T14:40:40;4.15;;;3.70;;
52786;SDS011;38661;53.152;5.846;2022-11-15T14:43:11;7.30;;;3.60;;
52786;SDS011;38661;53.152;5.846;2022-11-15T14:45:37;4.28;;;3.00;;
52786;SDS011;38661;53.152;5.846;2022-11-15T14:48:04;5.72;;;3.28;;
52786;SDS011;38661;53.152;5.846;2022-11-15T14:50:31;4.38;;;3.03;;
52786;SDS011;38661;53.152;5.846;2022-11-15T14:52:58;6.03;;;3.67;;
52786;SDS011;38661;53.152;5.846;2022-11-15T14:55:25;3.65;;;2.70;;
52786;SDS011;38661;53.152;5.846;2022-11-15T14:57:53;5.20;;;3.17;;
52786;SDS011;38661;53.152;5.846;2022-11-15T15:00:20;7.43;;;4.10;;
52786;SDS011;38661;53.152;5.846;2022-11-15T15:02:47;6.78;;;3.35;;
52786;SDS011;38661;53.152;5.846;2022-11-15T15:05:15;4.07;;;3.20;;
52786;SDS011;38661;53.152;5.846;2022-11-15T15:07:48;8.75;;;4.45;;
52786;SDS011;38661;53.152;5.846;2022-11-15T15:10:15;9.20;;;3.85;;
52786;SDS011;38661;53.152;5.846;2022-11-15T15:12:41;6.53;;;3.55;;
52786;SDS011;38661;53.152;5.846;2022-11-15T15:15:27;5.95;;;3.90;;
52786;SDS011;38661;53.152;5.846;2022-11-15T15:17:59;5.15;;;3.25;;
52786;SDS011;38661;53.152;5.846;2022-11-15T15:20:25;4.22;;;3.30;;
52786;SDS011;38661;53.152;5.846;2022-11-15T15:22:50;8.82;;;4.25;;
52786;SDS011;38661;53.152;5.846;2022-11-15T15:27:45;6.28;;;4.78;;
52786;SDS011;38661;53.152;5.846;2022-11-15T15:30:10;5.03;;;4.47;;
52786;SDS011;38661;53.152;5.846;2022-11-15T15:32:36;6.00;;;4.60;;
52786;SDS011;38661;53.152;5.846;2022-11-15T15:35:02;5.15;;;3.58;;
52786;SDS011;38661;53.152;5.846;2022-11-15T15:37:28;7.18;;;3.60;;
52786;SDS011;38661;53.152;5.846;2022-11-15T15:39:58;4.10;;;2.80;;
52786;SDS011;38661;53.152;5.846;2022-11-15T15:42:24;3.88;;;2.60;;
52786;SDS011;38661;53.152;5.846;2022-11-15T15:44:50;3.45;;;2.30;;
52786;SDS011;38661;53.152;5.846;2022-11-15T15:47:20;5.93;;;2.47;;
52786;SDS011;38661;53.152;5.846;2022-11-15T15:49:48;5.35;;;2.55;;
52786;SDS011;38661;53.152;5.846;2022-11-15T15:52:16;4.45;;;2.40;;
52786;SDS011;38661;53.152;5.846;2022-11-15T15:54:42;5.30;;;2.70;;
52786;SDS011;38661;53.152;5.846;2022-11-15T15:57:08;3.83;;;2.42;;
52786;SDS011;38661;53.152;5.846;2022-11-15T15:59:37;4.50;;;2.58;;
52786;SDS011;38661;53.152;5.846;2022-11-15T16:02:03;5.63;;;2.45;;
52786;SDS011;38661;53.152;5.846;2022-11-15T16:04:29;3.60;;;2.30;;
52786;SDS011;38661;53.152;5.846;2022-11-15T16:06:58;6.45;;;2.70;;
52786;SDS011;38661;53.152;5.846;2022-11-15T16:09:25;6.22;;;2.85;;
52786;SDS011;38661;53.152;5.846;2022-11-15T16:12:09;4.78;;;2.72;;
52786;SDS011;38661;53.152;5.846;2022-11-15T16:14:35;4.25;;;2.83;;
52786;SDS011;38661;53.152;5.846;2022-11-15T16:17:01;4.30;;;2.58;;
52786;SDS011;38661;53.152;5.846;2022-11-15T16:19:27;8.30;;;3.03;;
52786;SDS011;38661;53.152;5.846;2022-11-15T16:21:53;3.47;;;2.35;;
52786;SDS011;38661;53.152;5.846;2022-11-15T16:24:19;5.20;;;3.20;;
52786;SDS011;38661;53.152;5.846;2022-11-15T16:26:45;6.30;;;3.88;;
52786;SDS011;38661;53.152;5.846;2022-11-15T16:29:13;4.90;;;3.70;;
52786;SDS011;38661;53.152;5.846;2022-11-15T16:31:39;6.03;;;3.25;;
52786;SDS011;38661;53.152;5.846;2022-11-15T16:34:05;6.30;;;3.63;;
52786;SDS011;38661;53.152;5.846;2022-11-15T16:36:32;6.32;;;3.88;;
52786;SDS011;38661;53.152;5.846;2022-11-15T16:38:59;6.47;;;4.20;;
52786;SDS011;38661;53.152;5.846;2022-11-15T16:41:28;7.07;;;4.20;;
52786;SDS011;38661;53.152;5.846;2022-11-15T16:43:55;5.30;;;4.03;;
52786;SDS011;38661;53.152;5.846;2022-11-15T16:46:27;5.65;;;4.32;;
52786;SDS011;38661;53.152;5.846;2022-11-15T16:48:54;6.50;;;4.82;;
52786;SDS011;38661;53.152;5.846;2022-11-15T16:51:20;8.55;;;4.32;;